createdAt,value
2018-09-08T00:00:33.096Z,88.56
2018-09-08T00:01:33.066Z,87.95
2018-09-08T00:02:33.056Z,87.65
2018-09-08T00:03:33.062Z,86.94
2018-09-08T00:04:33.033Z,86.74
2018-09-08T00:05:33.091Z,86.39
2018-09-08T00:06:33.014Z,86.19
2018-09-08T00:07:33.001Z,85.88
2018-09-08T00:08:33.004Z,86.39
2018-09-08T00:09:32.984Z,85.88
2018-09-08T00:10:32.979Z,85.78
2018-09-08T00:11:33.005Z,85.38
2018-09-08T00:12:32.972Z,85.07
2018-09-08T00:13:32.979Z,85.17
2018-09-08T00:14:32.929Z,85.27
2018-09-08T00:15:32.912Z,85.68
2018-09-08T00:16:32.902Z,85.47
2018-09-08T00:17:32.942Z,85.78
2018-09-08T00:18:32.894Z,85.68
2018-09-08T00:19:32.868Z,85.68
2018-09-08T00:20:32.878Z,86.29
2018-09-08T00:21:32.851Z,86.29
2018-09-08T00:22:32.836Z,85.98
2018-09-08T00:23:32.887Z,86.29
2018-09-08T00:24:32.812Z,85.78
2018-09-08T00:25:32.803Z,86.29
2018-09-08T00:26:32.796Z,86.39
2018-09-08T00:27:32.794Z,86.59
2018-09-08T00:28:32.791Z,86.19
2018-09-08T00:29:32.918Z,86.29
2018-09-08T00:30:32.745Z,86.29
2018-09-08T00:31:32.733Z,86.39
2018-09-08T00:32:33.683Z,87.10
2018-09-08T00:33:32.716Z,86.29
2018-09-08T00:34:32.719Z,87.10
2018-09-08T00:35:32.763Z,87.24
2018-09-08T00:36:32.680Z,86.74
2018-09-08T00:37:32.672Z,87.04
2018-09-08T00:38:32.719Z,86.83
2018-09-08T00:39:32.669Z,87.04
2018-09-08T00:40:32.635Z,87.38
2018-09-08T00:41:32.670Z,88.10
2018-09-08T00:42:32.612Z,87.69
2018-09-08T00:43:32.600Z,87.69
2018-09-08T00:44:32.603Z,87.99
2018-09-08T00:45:32.581Z,87.59
2018-09-08T00:46:32.575Z,87.99
2018-09-08T00:47:32.597Z,87.89
2018-09-08T00:48:32.549Z,87.99
2018-09-08T00:49:32.552Z,87.79
2018-09-08T00:50:32.530Z,88.75
2018-09-08T00:51:32.516Z,88.34
2018-09-08T00:52:32.507Z,88.95
2018-09-08T00:53:32.536Z,89.15
2018-09-08T00:54:32.493Z,89.91
2018-09-08T00:55:32.475Z,89.36
2018-09-08T00:56:32.472Z,89.50
2018-09-08T00:57:32.444Z,89.40
2018-09-08T00:58:32.439Z,89.30
2018-09-08T00:59:32.493Z,90.01
2018-09-08T01:00:32.422Z,89.91
2018-09-08T01:01:32.407Z,89.91
2018-09-08T01:02:32.398Z,89.40
2018-09-08T01:03:32.382Z,89.70
2018-09-08T01:04:32.393Z,89.81
2018-09-08T01:05:32.365Z,89.70
2018-09-08T01:06:32.396Z,89.91
2018-09-08T01:07:32.337Z,89.70
2018-09-08T01:08:32.328Z,89.61
2018-09-08T01:09:32.332Z,89.91
2018-09-08T01:10:32.307Z,89.66
2018-09-08T01:11:32.295Z,89.91
2018-09-08T01:12:32.317Z,89.26
2018-09-08T01:13:32.273Z,89.30
2018-09-08T01:14:32.336Z,88.85
2018-09-08T01:15:32.253Z,88.69
2018-09-08T01:16:32.245Z,89.15
2018-09-08T01:17:32.234Z,88.85
2018-09-08T01:18:32.281Z,88.65
2018-09-08T01:19:32.222Z,88.34
2018-09-08T01:20:32.196Z,88.44
2018-09-08T01:21:32.191Z,88.24
2018-09-08T01:22:32.182Z,88.04
2018-09-08T01:23:32.166Z,88.24
2018-09-08T01:24:32.238Z,88.24
2018-09-08T01:25:32.147Z,88.44
2018-09-08T01:26:32.134Z,88.54
2018-09-08T01:27:32.122Z,88.65
2018-09-08T01:28:32.112Z,88.28
2018-09-08T01:29:32.114Z,87.73
2018-09-08T01:30:32.236Z,88.13
2018-09-08T01:31:32.081Z,88.24
2018-09-08T01:32:32.075Z,88.44
2018-09-08T01:33:32.057Z,88.28
2018-09-08T01:34:32.927Z,88.75
2018-09-08T01:35:32.036Z,89.20
2018-09-08T01:36:32.022Z,89.26
2018-09-08T01:37:32.019Z,90.01
2018-09-08T01:38:32.049Z,89.91
2018-09-08T01:39:32.015Z,89.91
2018-09-08T01:40:31.989Z,88.89
2018-09-08T01:41:32.048Z,89.09
2018-09-08T01:42:31.963Z,88.75
2018-09-08T01:43:31.945Z,88.48
2018-09-08T01:44:31.959Z,89.50
2018-09-08T01:45:31.930Z,89.30
2018-09-08T01:46:31.965Z,89.30
2018-09-08T01:47:31.910Z,88.69
2018-09-08T01:48:31.900Z,88.89
2018-09-08T01:49:31.896Z,89.09
2018-09-08T01:50:31.874Z,89.20
2018-09-08T01:51:31.864Z,89.30
2018-09-08T01:52:31.908Z,89.61
2018-09-08T01:53:31.842Z,89.34
2018-09-08T01:54:31.843Z,89.70
2018-09-08T01:55:31.823Z,90.86
2018-09-08T01:56:31.812Z,90.36
2018-09-08T01:57:31.799Z,89.64
2018-09-08T01:58:31.825Z,89.99
2018-09-08T01:59:31.820Z,90.40
2018-09-08T02:00:31.769Z,91.16
2018-09-08T02:01:31.756Z,90.81
2018-09-08T02:02:31.749Z,91.66
2018-09-08T02:03:31.734Z,92.07
2018-09-08T02:04:31.770Z,92.89
2018-09-08T02:05:31.714Z,92.89
2018-09-08T02:06:31.704Z,93.29
2018-09-08T02:07:31.694Z,93.50
2018-09-08T02:08:31.678Z,94.21
2018-09-08T02:09:31.884Z,94.11
2018-09-08T02:10:31.661Z,94.01
2018-09-08T02:11:31.657Z,94.62
2018-09-08T02:12:31.637Z,93.15
2018-09-08T02:13:31.632Z,92.94
2018-09-08T02:14:31.632Z,93.25
2018-09-08T02:15:31.649Z,93.10
2018-09-08T02:16:31.592Z,91.88
2018-09-08T02:17:31.583Z,91.38
2018-09-08T02:18:31.571Z,90.62
2018-09-08T02:19:31.589Z,90.62
2018-09-08T02:20:31.553Z,90.72
2018-09-08T02:21:31.579Z,90.92
2018-09-08T02:22:31.531Z,90.88
2018-09-08T02:23:31.521Z,90.99
2018-09-08T02:24:31.526Z,90.72
2018-09-08T02:25:31.565Z,91.03
2018-09-08T02:26:31.493Z,90.62
2018-09-08T02:27:31.492Z,90.58
2018-09-08T02:28:31.534Z,90.52
2018-09-08T02:29:31.476Z,90.83
2018-09-08T02:30:31.440Z,91.19
2018-09-08T02:31:31.435Z,91.33
2018-09-08T02:32:31.422Z,90.72
2018-09-08T02:33:31.413Z,90.62
2018-09-08T02:34:31.456Z,90.72
2018-09-08T02:35:31.390Z,90.31
2018-09-08T02:36:31.383Z,89.91
2018-09-08T02:37:31.374Z,89.91
2018-09-08T02:38:31.356Z,89.26
2018-09-08T02:39:31.368Z,89.70
2018-09-08T02:40:31.395Z,89.66
2018-09-08T02:41:31.326Z,89.66
2018-09-08T02:42:31.316Z,89.70
2018-09-08T02:43:31.304Z,89.87
2018-09-08T02:44:31.309Z,89.91
2018-09-08T02:45:31.282Z,89.70
2018-09-08T02:46:31.296Z,89.56
2018-09-08T02:47:31.268Z,89.36
2018-09-08T02:48:31.256Z,91.03
2018-09-08T02:49:31.267Z,92.00
2018-09-08T02:50:31.225Z,90.58
2018-09-08T02:51:31.266Z,91.33
2018-09-08T02:52:31.244Z,90.62
2018-09-08T02:53:31.194Z,91.49
2018-09-08T02:54:31.200Z,89.70
2018-09-08T02:55:31.186Z,90.52
2018-09-08T02:56:31.159Z,90.92
2018-09-08T02:57:31.151Z,90.62
2018-09-08T02:58:31.178Z,91.23
2018-09-08T02:59:31.126Z,90.92
2018-09-08T03:00:31.140Z,90.42
2018-09-08T03:01:31.112Z,90.11
2018-09-08T03:02:31.099Z,89.20
2018-09-08T03:03:31.087Z,90.11
2018-09-08T03:04:31.120Z,88.85
2018-09-08T03:05:31.081Z,88.65
2018-09-08T03:06:31.054Z,88.20
2018-09-08T03:07:31.043Z,88.10
2018-09-08T03:08:31.030Z,87.73
2018-09-08T03:09:31.021Z,87.08
2018-09-08T03:10:31.068Z,86.68
2018-09-08T03:11:31.000Z,87.79
2018-09-08T03:12:30.987Z,87.08
2018-09-08T03:13:30.983Z,86.88
2018-09-08T03:14:30.970Z,86.57
2018-09-08T03:15:30.971Z,86.33
2018-09-08T03:16:30.997Z,86.33
2018-09-08T03:17:30.932Z,86.22
2018-09-08T03:18:30.928Z,86.02
2018-09-08T03:19:30.916Z,85.92
2018-09-08T03:20:30.915Z,85.92
2018-09-08T03:21:30.891Z,86.53
2018-09-08T03:22:30.917Z,86.94
2018-09-08T03:23:30.872Z,87.08
2018-09-08T03:24:30.867Z,88.40
2018-09-08T03:25:30.859Z,88.40
2018-09-08T03:26:30.840Z,88.95
2018-09-08T03:27:30.827Z,88.85
2018-09-08T03:28:30.861Z,88.89
2018-09-08T03:29:30.804Z,88.39
2018-09-08T03:30:30.821Z,89.34
2018-09-08T03:31:30.794Z,90.36
2018-09-08T03:32:30.782Z,91.42
2018-09-08T03:33:30.762Z,91.11
2018-09-08T03:34:30.792Z,90.40
2018-09-08T03:35:30.737Z,90.91
2018-09-08T03:36:30.801Z,89.89
2018-09-08T03:37:30.718Z,91.26
2018-09-08T03:38:30.708Z,90.75
2018-09-08T03:39:30.736Z,91.97
2018-09-08T03:40:30.682Z,91.50
2018-09-08T03:41:30.686Z,92.83
2018-09-08T03:42:30.663Z,92.93
2018-09-08T03:43:30.654Z,92.93
2018-09-08T03:44:30.638Z,92.58
2018-09-08T03:45:30.662Z,91.97
2018-09-08T03:46:30.634Z,90.70
2018-09-08T03:47:30.613Z,90.66
2018-09-08T03:48:30.612Z,89.61
2018-09-08T03:49:30.583Z,90.05
2018-09-08T03:50:30.573Z,89.64
2018-09-08T03:51:30.629Z,89.85
2018-09-08T03:52:30.552Z,89.75
2018-09-08T03:53:30.544Z,89.34
2018-09-08T03:54:30.530Z,89.54
2018-09-08T03:55:30.525Z,90.05
2018-09-08T03:56:30.536Z,89.91
2018-09-08T03:57:30.529Z,89.85
2018-09-08T03:58:30.490Z,89.03
2018-09-08T03:59:30.484Z,89.59
2018-09-08T04:00:30.465Z,90.40
2018-09-08T04:01:30.455Z,90.34
2018-09-08T04:02:30.467Z,90.55
2018-09-08T04:03:30.517Z,90.95
2018-09-08T04:04:30.426Z,91.40
2018-09-08T04:05:30.460Z,91.40
2018-09-08T04:06:30.405Z,91.40
2018-09-08T04:07:30.412Z,91.81
2018-09-08T04:08:30.385Z,92.57
2018-09-08T04:09:30.406Z,92.91
2018-09-08T04:10:30.362Z,92.30
2018-09-08T04:11:30.348Z,92.24
2018-09-08T04:12:30.388Z,92.69
2018-09-08T04:13:30.326Z,93.77
2018-09-08T04:14:30.314Z,95.25
2018-09-08T04:15:30.389Z,95.45
2018-09-08T04:16:30.296Z,95.04
2018-09-08T04:17:30.294Z,95.45
2018-09-08T04:18:30.312Z,95.45
2018-09-08T04:19:30.257Z,95.65
2018-09-08T04:20:30.250Z,96.02
2018-09-08T04:21:30.260Z,96.06
2018-09-08T04:22:30.239Z,95.15
2018-09-08T04:23:30.218Z,96.17
2018-09-08T04:24:30.207Z,96.27
2018-09-08T04:25:30.194Z,95.81
2018-09-08T04:26:30.183Z,95.72
2018-09-08T04:27:30.251Z,95.41
2018-09-08T04:28:30.163Z,94.84
2018-09-08T04:29:30.184Z,94.33
2018-09-08T04:30:30.140Z,94.74
2018-09-08T04:31:30.130Z,94.43
2018-09-08T04:32:30.131Z,94.48
2018-09-08T04:33:30.134Z,94.89
2018-09-08T04:34:30.096Z,94.17
2018-09-08T04:35:30.083Z,95.39
2018-09-08T04:36:30.073Z,96.51
2018-09-08T04:37:30.078Z,96.31
2018-09-08T04:38:30.054Z,96.72
2018-09-08T04:39:30.082Z,96.46
2018-09-08T04:40:30.031Z,96.46
2018-09-08T04:41:30.021Z,96.97
2018-09-08T04:42:30.030Z,97.44
2018-09-08T04:43:29.997Z,97.33
2018-09-08T04:44:29.995Z,97.39
2018-09-08T04:45:30.012Z,97.29
2018-09-08T04:46:29.965Z,97.60
2018-09-08T04:47:29.969Z,96.43
2018-09-08T04:48:29.942Z,96.02
2018-09-08T04:49:29.929Z,96.12
2018-09-08T04:50:29.924Z,96.38
2018-09-08T04:51:30.020Z,95.57
2018-09-08T04:52:29.918Z,94.40
2018-09-08T04:53:29.887Z,94.09
2018-09-08T04:54:29.928Z,93.44
2018-09-08T04:55:29.870Z,93.44
2018-09-08T04:56:29.857Z,92.52
2018-09-08T04:57:29.931Z,91.77
2018-09-08T04:58:29.836Z,91.46
2018-09-08T04:59:29.826Z,91.22
2018-09-08T05:00:29.815Z,90.85
2018-09-08T05:01:29.805Z,91.26
2018-09-08T05:02:29.803Z,90.81
2018-09-08T05:03:29.833Z,90.20
2018-09-08T05:04:29.771Z,89.85
2018-09-08T05:05:29.758Z,89.54
2018-09-08T05:06:29.779Z,89.54
2018-09-08T05:07:29.739Z,89.64
2018-09-08T05:08:29.740Z,89.99
2018-09-08T05:09:29.748Z,90.30
2018-09-08T05:10:29.759Z,89.99
2018-09-08T05:11:29.694Z,89.69
2018-09-08T05:12:29.681Z,89.99
2018-09-08T05:13:29.732Z,90.30
2018-09-08T05:14:29.688Z,90.16
2018-09-08T05:15:29.648Z,89.89
2018-09-08T05:16:29.641Z,89.99
2018-09-08T05:17:29.630Z,90.09
2018-09-08T05:18:29.645Z,90.20
2018-09-08T05:19:29.602Z,89.99
2018-09-08T05:20:29.627Z,89.34
2018-09-08T05:21:29.584Z,89.85
2018-09-08T05:22:29.572Z,89.79
2018-09-08T05:23:29.582Z,89.79
2018-09-08T05:24:29.549Z,89.99
2018-09-08T05:25:29.538Z,90.09
2018-09-08T05:26:29.556Z,89.75
2018-09-08T05:27:29.513Z,89.24
2018-09-08T05:28:29.556Z,89.95
2018-09-08T05:29:29.497Z,90.09
2018-09-08T05:30:29.483Z,89.59
2018-09-08T05:31:29.473Z,89.89
2018-09-08T05:32:29.478Z,89.69
2018-09-08T05:33:29.473Z,90.09
2018-09-08T05:34:29.437Z,90.16
2018-09-08T05:35:29.428Z,88.83
2018-09-08T05:36:29.457Z,89.34
2018-09-08T05:37:29.403Z,89.64
2018-09-08T05:38:29.464Z,89.85
2018-09-08T05:39:29.379Z,89.34
2018-09-08T05:40:29.368Z,89.75
2018-09-08T05:41:29.362Z,89.03
2018-09-08T05:42:29.348Z,89.09
2018-09-08T05:43:29.355Z,88.69
2018-09-08T05:44:29.353Z,88.28
2018-09-08T05:45:29.315Z,87.53
2018-09-08T05:46:29.301Z,88.18
2018-09-08T05:47:29.291Z,87.23
2018-09-08T05:48:29.301Z,87.23
2018-09-08T05:49:29.269Z,87.73
2018-09-08T05:50:29.293Z,86.61
2018-09-08T05:51:29.249Z,86.82
2018-09-08T05:52:29.273Z,87.93
2018-09-08T05:53:29.238Z,87.73
2018-09-08T05:54:29.216Z,87.57
2018-09-08T05:55:29.319Z,88.48
2018-09-08T05:56:29.217Z,88.89
2018-09-08T05:57:29.180Z,89.56
2018-09-08T05:58:29.238Z,89.40
2018-09-08T05:59:29.160Z,89.26
2018-09-08T06:00:29.151Z,88.69
2018-09-08T06:01:29.138Z,88.48
2018-09-08T06:02:29.153Z,88.65
2018-09-08T06:03:29.131Z,87.75
2018-09-08T06:04:29.109Z,87.34
2018-09-08T06:05:29.103Z,87.69
2018-09-08T06:06:29.084Z,86.74
2018-09-08T06:07:29.071Z,86.83
2018-09-08T06:08:29.123Z,86.94
2018-09-08T06:09:29.057Z,87.29
2018-09-08T06:10:29.045Z,87.49
2018-09-08T06:11:29.031Z,87.69
2018-09-08T06:12:29.023Z,87.53
2018-09-08T06:13:29.028Z,88.44
2018-09-08T06:14:29.025Z,88.13
2018-09-08T06:15:28.987Z,88.24
2018-09-08T06:16:28.976Z,88.20
2018-09-08T06:17:29.010Z,86.35
2018-09-08T06:18:29.016Z,83.35
2018-09-08T06:19:28.981Z,80.94
2018-09-08T06:20:28.970Z,80.13
2018-09-08T06:21:28.919Z,78.85
2018-09-08T06:22:28.913Z,79.15
2018-09-08T06:23:28.917Z,78.00
2018-09-08T06:24:29.002Z,76.86
2018-09-08T06:25:28.925Z,76.79
2018-09-08T06:26:28.895Z,76.99
2018-09-08T06:27:28.862Z,78.88
2018-09-08T06:28:28.991Z,79.13
2018-09-08T06:29:28.834Z,80.82
2018-09-08T06:30:28.825Z,81.87
2018-09-08T06:31:28.861Z,82.62
2018-09-08T06:32:28.837Z,83.63
2018-09-08T06:33:28.854Z,83.47
2018-09-08T06:34:28.809Z,84.22
2018-09-08T06:35:28.811Z,84.38
2018-09-08T06:36:28.754Z,84.44
2018-09-08T06:37:28.747Z,84.14
2018-09-08T06:38:28.775Z,83.53
2018-09-08T06:39:28.721Z,82.75
2018-09-08T06:40:28.710Z,82.03
2018-09-08T06:41:28.699Z,83.29
2018-09-08T06:42:28.688Z,82.68
2018-09-08T06:43:28.691Z,83.69
2018-09-08T06:44:28.674Z,82.07
2018-09-08T06:45:28.683Z,83.39
2018-09-08T06:46:28.649Z,84.00
2018-09-08T06:47:28.703Z,85.11
2018-09-08T06:48:28.666Z,82.48
2018-09-08T06:49:28.617Z,83.39
2018-09-08T06:50:28.631Z,84.16
2018-09-08T06:51:28.592Z,81.87
2018-09-08T06:52:28.578Z,81.43
2018-09-08T06:53:28.599Z,82.54
2018-09-08T06:54:28.574Z,82.56
2018-09-08T06:55:28.575Z,82.06
2018-09-08T06:56:28.559Z,78.63
2018-09-08T06:57:28.523Z,75.43
2018-09-08T06:58:28.527Z,72.54
2018-09-08T06:59:28.501Z,70.73
2018-09-08T07:00:28.525Z,67.52
2018-09-08T07:01:28.502Z,66.25
2018-09-08T07:02:28.498Z,63.92
2018-09-08T07:03:28.493Z,63.11
2018-09-08T07:04:28.445Z,63.65
2018-09-08T07:05:28.437Z,62.72
2018-09-08T07:06:28.426Z,63.12
2018-09-08T07:07:28.416Z,60.32
2018-09-08T07:08:28.431Z,60.29
2018-09-08T07:09:28.415Z,59.30
2018-09-08T07:10:28.397Z,59.41
2018-09-08T07:11:28.369Z,60.44
2018-09-08T07:12:28.363Z,63.46
2018-09-08T07:13:28.802Z,64.63
2018-09-08T07:14:28.336Z,64.20
2018-09-08T07:15:28.326Z,65.25
2018-09-08T07:16:28.345Z,61.95
2018-09-08T07:17:28.323Z,60.55
2018-09-08T07:18:28.307Z,61.11
2018-09-08T07:19:28.282Z,62.33
2018-09-08T07:20:28.272Z,64.57
2018-09-08T07:21:28.261Z,64.11
2018-09-08T07:22:28.249Z,60.31
2018-09-08T07:23:28.287Z,58.55
2018-09-08T07:24:28.237Z,58.32
2018-09-08T07:25:28.226Z,58.76
2018-09-08T07:26:28.222Z,56.04
2018-09-08T07:27:28.195Z,57.34
2018-09-08T07:28:28.196Z,56.34
2018-09-08T07:29:28.173Z,56.64
2018-09-08T07:30:28.161Z,57.69
2018-09-08T07:31:28.151Z,57.65
2018-09-08T07:32:28.156Z,58.65
2018-09-08T07:33:28.155Z,57.52
2018-09-08T07:34:28.140Z,59.36
2018-09-08T07:35:28.128Z,57.41
2018-09-08T07:36:28.123Z,56.07
2018-09-08T07:37:28.166Z,56.20
2018-09-08T07:38:28.110Z,58.04
2018-09-08T07:39:28.072Z,56.31
2018-09-08T07:40:28.124Z,56.66
2018-09-08T07:41:28.062Z,56.66
2018-09-08T07:42:28.059Z,56.09
2018-09-08T07:43:28.140Z,57.76
2018-09-08T07:44:28.043Z,56.53
2018-09-08T07:45:28.013Z,56.63
2018-09-08T07:46:27.994Z,56.73
2018-09-08T07:47:28.059Z,55.19
2018-09-08T07:48:28.024Z,57.18
2018-09-08T07:49:28.038Z,56.46
2018-09-08T07:50:27.944Z,54.34
2018-09-08T07:51:27.947Z,55.29
2018-09-08T07:52:27.940Z,55.49
2018-09-08T07:53:27.961Z,53.66
2018-09-08T07:54:27.949Z,55.41
2018-09-08T07:55:27.975Z,53.06
2018-09-08T07:56:27.877Z,55.03
2018-09-08T07:57:27.876Z,51.35
2018-09-08T07:58:27.942Z,53.53
2018-09-08T07:59:27.958Z,51.42
2018-09-08T08:00:27.846Z,54.16
2018-09-08T08:01:27.839Z,52.17
2018-09-08T08:02:27.842Z,54.13
2018-09-08T08:03:27.818Z,54.93
2018-09-08T08:04:27.833Z,54.50
2018-09-08T08:05:27.780Z,53.78
2018-09-08T08:06:27.788Z,53.44
2018-09-08T08:07:27.761Z,52.79
2018-09-08T08:08:27.786Z,58.87
2018-09-08T08:09:27.780Z,54.21
2018-09-08T08:10:27.727Z,53.21
2018-09-08T08:11:27.733Z,52.79
2018-09-08T08:12:27.704Z,57.70
2018-09-08T08:13:27.691Z,55.18
2018-09-08T08:14:27.730Z,54.36
2018-09-08T08:15:27.674Z,56.32
2018-09-08T08:16:27.660Z,55.31
2018-09-08T08:17:27.647Z,55.11
2018-09-08T08:18:27.636Z,55.41
2018-09-08T08:19:27.677Z,54.28
2018-09-08T08:20:27.663Z,57.52
2018-09-08T08:21:27.603Z,55.80
2018-09-08T08:22:27.593Z,52.49
2018-09-08T08:23:27.581Z,53.09
2018-09-08T08:24:27.572Z,55.10
2018-09-08T08:25:27.578Z,54.06
2018-09-08T08:26:27.574Z,54.13
2018-09-08T08:27:27.539Z,52.31
2018-09-08T08:28:27.526Z,51.37
2018-09-08T08:29:27.516Z,51.92
2018-09-08T08:30:27.526Z,50.21
2018-09-08T08:31:27.544Z,51.15
2018-09-08T08:32:27.495Z,51.45
2018-09-08T08:33:27.491Z,51.75
2018-09-08T08:34:27.522Z,55.00
2018-09-08T08:35:27.469Z,53.16
2018-09-08T08:36:27.439Z,50.43
2018-09-08T08:37:27.482Z,52.19
2018-09-08T08:38:27.420Z,53.91
2018-09-08T08:39:27.438Z,54.18
2018-09-08T08:40:27.413Z,51.82
2018-09-08T08:41:27.386Z,53.49
2018-09-08T08:42:27.378Z,55.38
2018-09-08T08:43:27.372Z,53.64
2018-09-08T08:44:27.354Z,53.59
2018-09-08T08:45:27.359Z,55.73
2018-09-08T08:46:27.377Z,54.41
2018-09-08T08:47:27.327Z,56.11
2018-09-08T08:48:27.332Z,56.98
2018-09-08T08:49:27.332Z,54.31
2018-09-08T08:50:27.303Z,53.59
2018-09-08T08:51:27.298Z,53.56
2018-09-08T08:52:27.322Z,52.24
2018-09-08T08:53:27.325Z,52.19
2018-09-08T08:54:27.271Z,56.74
2018-09-08T08:55:27.247Z,51.25
2018-09-08T08:56:27.273Z,49.84
2018-09-08T08:57:27.235Z,50.31
2018-09-08T08:58:27.200Z,49.66
2018-09-08T08:59:27.190Z,51.30
2018-09-08T09:00:27.217Z,47.34
2018-09-08T09:01:27.253Z,51.28
2018-09-08T09:02:27.182Z,48.55
2018-09-08T09:03:27.148Z,47.58
2018-09-08T09:04:27.159Z,46.67
2018-09-08T09:05:27.150Z,45.05
2018-09-08T09:06:27.156Z,45.27
2018-09-08T09:07:27.183Z,48.13
2018-09-08T09:08:27.505Z,46.42
2018-09-08T09:09:27.101Z,48.99
2018-09-08T09:10:27.088Z,47.70
2018-09-08T09:11:27.079Z,44.93
2018-09-08T09:12:27.055Z,47.92
2018-09-08T09:13:27.150Z,47.00
2018-09-08T09:14:27.035Z,45.55
2018-09-08T09:15:27.452Z,48.41
2018-09-08T09:16:27.113Z,46.19
2018-09-08T09:17:27.012Z,44.65
2018-09-08T09:18:27.062Z,46.53
2018-09-08T09:19:27.077Z,47.13
2018-09-08T09:20:26.979Z,49.08
2018-09-08T09:21:26.963Z,48.91
2018-09-08T09:22:26.983Z,47.66
2018-09-08T09:23:26.958Z,47.74
2018-09-08T09:24:27.138Z,46.48
2018-09-08T09:25:26.941Z,46.28
2018-09-08T09:26:26.984Z,46.70
2018-09-08T09:27:26.900Z,51.60
2018-09-08T09:28:26.892Z,50.80
2018-09-08T09:29:26.879Z,48.52
2018-09-08T09:30:26.879Z,47.89
2018-09-08T09:31:26.856Z,50.10
2018-09-08T09:32:26.846Z,51.22
2018-09-08T09:33:26.837Z,48.57
2018-09-08T09:34:26.834Z,46.66
2018-09-08T09:35:26.828Z,46.33
2018-09-08T09:36:26.811Z,48.44
2018-09-08T09:37:26.929Z,46.65
2018-09-08T09:38:26.788Z,48.61
2018-09-08T09:39:26.776Z,52.31
2018-09-08T09:40:26.819Z,47.25
2018-09-08T09:41:26.743Z,46.91
2018-09-08T09:42:26.770Z,45.40
2018-09-08T09:43:26.753Z,44.81
2018-09-08T09:44:26.718Z,48.35
2018-09-08T09:45:26.728Z,45.48
2018-09-08T09:46:26.710Z,45.23
2018-09-08T09:47:26.687Z,46.20
2018-09-08T09:48:26.721Z,43.91
2018-09-08T09:49:26.689Z,45.27
2018-09-08T09:50:26.670Z,45.14
2018-09-08T09:51:26.646Z,43.95
2018-09-08T09:52:26.639Z,44.72
2018-09-08T09:53:26.696Z,44.55
2018-09-08T09:54:26.623Z,46.84
2018-09-08T09:55:26.619Z,49.13
2018-09-08T09:56:26.597Z,49.85
2018-09-08T09:57:26.591Z,50.35
2018-09-08T09:58:26.634Z,48.74
2018-09-08T09:59:26.559Z,46.70
2018-09-08T10:00:26.575Z,46.06
2018-09-08T10:01:26.736Z,45.25
2018-09-08T10:02:26.519Z,45.42
2018-09-08T10:03:26.516Z,44.65
2018-09-08T10:04:26.513Z,48.60
2018-09-08T10:05:26.530Z,46.17
2018-09-08T10:06:26.543Z,45.16
2018-09-08T10:07:26.476Z,50.09
2018-09-08T10:08:26.553Z,45.19
2018-09-08T10:09:26.446Z,43.31
2018-09-08T10:10:26.439Z,44.05
2018-09-08T10:11:26.505Z,46.30
2018-09-08T10:12:26.425Z,44.90
2018-09-08T10:13:26.411Z,45.49
2018-09-08T10:14:26.609Z,43.24
2018-09-08T10:15:26.383Z,42.96
2018-09-08T10:16:26.399Z,43.04
2018-09-08T10:17:26.363Z,45.12
2018-09-08T10:18:26.404Z,47.37
2018-09-08T10:19:26.344Z,45.17
2018-09-08T10:20:26.339Z,44.20
2018-09-08T10:21:26.336Z,45.19
2018-09-08T10:22:26.326Z,44.75
2018-09-08T10:23:26.421Z,40.61
2018-09-08T10:24:26.295Z,42.92
2018-09-08T10:25:26.279Z,44.49
2018-09-08T10:26:26.355Z,45.53
2018-09-08T10:27:26.271Z,46.95
2018-09-08T10:28:26.252Z,46.89
2018-09-08T10:29:26.245Z,48.38
2018-09-08T10:30:26.316Z,48.58
2018-09-08T10:31:26.259Z,48.08
2018-09-08T10:32:26.257Z,49.11
2018-09-08T10:33:26.217Z,46.66
2018-09-08T10:34:26.246Z,45.05
2018-09-08T10:35:26.181Z,46.42
2018-09-08T10:36:26.211Z,43.14
2018-09-08T10:37:26.220Z,46.39
2018-09-08T10:38:26.170Z,46.12
2018-09-08T10:39:26.165Z,46.08
2018-09-08T10:40:26.436Z,43.59
2018-09-08T10:41:26.136Z,44.43
2018-09-08T10:42:26.260Z,42.82
2018-09-08T10:43:26.126Z,40.66
2018-09-08T10:44:26.091Z,42.29
2018-09-08T10:45:26.140Z,42.05
2018-09-08T10:46:26.088Z,44.07
2018-09-08T10:47:26.119Z,43.06
2018-09-08T10:48:26.045Z,43.76
2018-09-08T10:49:26.305Z,44.71
2018-09-08T10:50:26.107Z,45.27
2018-09-08T10:51:26.027Z,44.55
2018-09-08T10:52:26.003Z,43.54
2018-09-08T10:53:25.994Z,43.02
2018-09-08T10:54:26.042Z,42.88
2018-09-08T10:55:25.995Z,40.47
2018-09-08T10:56:26.022Z,41.63
2018-09-08T10:57:25.955Z,47.26
2018-09-08T10:58:25.999Z,43.79
2018-09-08T10:59:25.962Z,43.67
2018-09-08T11:00:25.951Z,45.31
2018-09-08T11:01:26.015Z,42.43
2018-09-08T11:02:26.161Z,42.52
2018-09-08T11:03:25.894Z,41.14
2018-09-08T11:04:25.886Z,40.98
2018-09-08T11:05:25.872Z,42.29
2018-09-08T11:06:25.924Z,42.86
2018-09-08T11:07:25.861Z,45.00
2018-09-08T11:08:25.845Z,42.99
2018-09-08T11:09:25.831Z,44.18
2018-09-08T11:10:25.972Z,45.17
2018-09-08T11:11:25.825Z,46.53
2018-09-08T11:12:25.802Z,41.69
2018-09-08T11:13:25.844Z,44.95
2018-09-08T11:14:25.817Z,44.36
2018-09-08T11:15:25.807Z,42.08
2018-09-08T11:16:25.780Z,40.80
2018-09-08T11:17:25.747Z,41.04
2018-09-08T11:18:25.739Z,41.83
2018-09-08T11:19:25.745Z,44.48
2018-09-08T11:20:25.732Z,42.22
2018-09-08T11:21:25.793Z,40.92
2018-09-08T11:22:25.771Z,42.29
2018-09-08T11:23:25.687Z,42.11
2018-09-08T11:24:25.685Z,42.80
2018-09-08T11:25:25.675Z,42.38
2018-09-08T11:26:25.682Z,42.85
2018-09-08T11:27:25.651Z,42.46
2018-09-08T11:28:25.642Z,44.28
2018-09-08T11:29:25.669Z,42.01
2018-09-08T11:30:25.662Z,45.25
2018-09-08T11:31:25.620Z,44.64
2018-09-08T11:32:25.828Z,44.26
2018-09-08T11:33:25.629Z,43.35
2018-09-08T11:34:25.616Z,45.15
2018-09-08T11:35:25.595Z,43.87
2018-09-08T11:36:25.564Z,43.51
2018-09-08T11:37:25.605Z,45.12
2018-09-08T11:38:25.826Z,40.68
2018-09-08T11:39:25.527Z,44.78
2018-09-08T11:40:25.517Z,44.89
2018-09-08T11:41:25.508Z,42.01
2018-09-08T11:42:25.529Z,43.95
2018-09-08T11:43:25.497Z,45.12
2018-09-08T11:44:25.503Z,40.74
2018-09-08T11:45:25.538Z,41.79
2018-09-08T11:46:25.454Z,45.50
2018-09-08T11:47:25.452Z,44.59
2018-09-08T11:48:25.439Z,43.79
2018-09-08T11:49:25.473Z,45.28
2018-09-08T11:50:25.424Z,46.37
2018-09-08T11:51:25.422Z,44.89
2018-09-08T11:52:25.405Z,49.59
2018-09-08T11:53:25.391Z,46.15
2018-09-08T11:54:25.394Z,48.25
2018-09-08T11:55:25.414Z,47.93
2018-09-08T11:56:25.344Z,49.66
2018-09-08T11:57:25.356Z,43.55
2018-09-08T11:58:25.320Z,42.58
2018-09-08T11:59:25.336Z,45.18
2018-09-08T12:00:25.301Z,45.78
2018-09-08T12:01:25.425Z,46.51
2018-09-08T12:02:25.289Z,48.02
2018-09-08T12:03:25.265Z,47.43
2018-09-08T12:04:25.263Z,47.71
2018-09-08T12:05:25.313Z,43.54
2018-09-08T12:06:25.274Z,46.91
2018-09-08T12:07:25.257Z,44.95
2018-09-08T12:08:25.215Z,48.14
2018-09-08T12:09:25.212Z,48.47
2018-09-08T12:10:25.203Z,45.43
2018-09-08T12:11:25.281Z,50.23
2018-09-08T12:12:25.226Z,50.25
2018-09-08T12:13:25.192Z,50.82
2018-09-08T12:14:25.470Z,55.38
2018-09-08T12:15:25.157Z,52.29
2018-09-08T12:16:25.144Z,48.22
2018-09-08T12:17:25.143Z,49.23
2018-09-08T12:18:25.122Z,46.25
2018-09-08T12:19:25.097Z,47.37
2018-09-08T12:20:25.102Z,48.86
2018-09-08T12:21:25.109Z,48.07
2018-09-08T12:22:25.078Z,48.19
2018-09-08T12:23:25.093Z,48.19
2018-09-08T12:24:25.107Z,48.38
2018-09-08T12:25:25.034Z,52.44
2018-09-08T12:26:25.025Z,55.60
2018-09-08T12:27:25.040Z,50.33
2018-09-08T12:28:25.013Z,48.52
2018-09-08T12:29:25.003Z,51.97
2018-09-08T12:30:25.056Z,50.38
2018-09-08T12:31:25.023Z,48.57
2018-09-08T12:32:25.006Z,51.42
2018-09-08T12:33:24.961Z,51.25
2018-09-08T12:34:24.947Z,47.38
2018-09-08T12:35:24.931Z,48.77
2018-09-08T12:36:24.927Z,46.66
2018-09-08T12:37:24.927Z,45.68
2018-09-08T12:38:24.914Z,49.07
2018-09-08T12:39:24.892Z,50.05
2018-09-08T12:40:24.932Z,48.57
2018-09-08T12:41:24.870Z,48.59
2018-09-08T12:42:24.873Z,46.41
2018-09-08T12:43:24.855Z,48.02
2018-09-08T12:44:24.831Z,48.11
2018-09-08T12:45:24.828Z,51.62
2018-09-08T12:46:24.978Z,47.05
2018-09-08T12:47:24.879Z,47.56
2018-09-08T12:48:24.851Z,47.39
2018-09-08T12:49:24.772Z,46.39
2018-09-08T12:50:24.781Z,47.71
2018-09-08T12:51:24.775Z,49.13
2018-09-08T12:52:24.751Z,51.32